createdAt,value
2022-08-21T00:00:29.221Z,3.78
2022-08-21T00:03:02.157Z,3.47
2022-08-21T00:05:30.228Z,4.13
2022-08-21T00:07:57.494Z,4.55
2022-08-21T00:10:24.669Z,4.72
2022-08-21T00:12:52.034Z,4.50
2022-08-21T00:15:20.933Z,4.70
2022-08-21T00:17:48.149Z,4.60
2022-08-21T00:20:16.853Z,4.40
2022-08-21T00:22:44.264Z,4.35
2022-08-21T00:25:11.906Z,4.68
2022-08-21T00:27:39.123Z,4.53
2022-08-21T00:30:07.724Z,5.28
2022-08-21T00:32:35.187Z,4.88
2022-08-21T00:35:02.260Z,5.35
2022-08-21T00:37:30.558Z,4.95
2022-08-21T00:40:02.741Z,4.93
2022-08-21T00:42:31.171Z,3.95
2022-08-21T00:44:59.089Z,4.05
2022-08-21T00:47:26.191Z,4.15
2022-08-21T00:49:53.321Z,3.42
2022-08-21T00:52:23.768Z,4.13
2022-08-21T00:54:51.470Z,3.35
2022-08-21T00:57:23.925Z,3.05
2022-08-21T00:59:53.252Z,2.92
2022-08-21T01:02:21.315Z,2.55
2022-08-21T01:04:48.627Z,2.25
2022-08-21T01:07:15.825Z,2.10
2022-08-21T01:09:43.180Z,1.90
2022-08-21T01:12:11.460Z,2.25
2022-08-21T01:14:38.644Z,2.10
2022-08-21T01:17:06.050Z,2.28
2022-08-21T01:19:33.608Z,2.28
2022-08-21T01:22:00.733Z,2.78
2022-08-21T01:24:28.020Z,3.58
2022-08-21T01:26:55.853Z,3.38
2022-08-21T01:29:28.998Z,4.00
2022-08-21T01:31:56.349Z,4.35
2022-08-21T01:34:23.429Z,4.38
2022-08-21T01:36:50.549Z,4.35
2022-08-21T01:39:17.848Z,4.50
2022-08-21T01:41:45.390Z,3.45
2022-08-21T01:44:12.488Z,3.50
2022-08-21T01:46:39.580Z,3.38
2022-08-21T01:49:06.998Z,3.45
2022-08-21T01:51:34.317Z,4.50
2022-08-21T01:54:01.494Z,4.68
2022-08-21T01:56:28.769Z,4.63
2022-08-21T01:58:55.905Z,4.85
2022-08-21T02:01:23.122Z,5.13
2022-08-21T02:03:50.322Z,5.25
2022-08-21T02:06:18.780Z,5.20
2022-08-21T02:08:46.529Z,5.70
2022-08-21T02:11:13.634Z,6.07
2022-08-21T02:13:41.616Z,5.47
2022-08-21T02:16:08.962Z,5.90
2022-08-21T02:18:36.415Z,5.78
2022-08-21T02:21:03.728Z,6.05
2022-08-21T02:23:30.844Z,6.60
2022-08-21T02:26:02.538Z,5.70
2022-08-21T02:28:29.980Z,5.88
2022-08-21T02:30:57.516Z,5.97
2022-08-21T02:33:25.418Z,5.88
2022-08-21T02:35:52.864Z,6.30
2022-08-21T02:38:22.522Z,6.65
2022-08-21T02:40:51.326Z,6.15
2022-08-21T02:43:19.404Z,6.18
2022-08-21T02:45:46.886Z,6.57
2022-08-21T02:48:15.264Z,5.97
2022-08-21T02:50:44.277Z,6.10
2022-08-21T02:53:16.238Z,6.38
2022-08-21T02:55:44.238Z,6.00
2022-08-21T02:58:11.744Z,6.13
2022-08-21T03:00:38.932Z,7.03
2022-08-21T03:03:06.869Z,7.00
2022-08-21T03:05:35.199Z,7.25
2022-08-21T03:08:03.517Z,6.93
2022-08-21T03:10:31.915Z,8.23
2022-08-21T03:12:59.218Z,8.30
2022-08-21T03:15:26.469Z,7.90
2022-08-21T03:17:55.463Z,7.78
2022-08-21T03:20:24.643Z,7.93
2022-08-21T03:22:56.557Z,8.40
2022-08-21T03:25:40.150Z,8.40
2022-08-21T03:28:13.058Z,7.95
2022-08-21T03:30:45.320Z,8.20
2022-08-21T03:33:15.145Z,8.52
2022-08-21T03:35:46.681Z,7.22
2022-08-21T03:38:13.945Z,7.70
2022-08-21T03:40:41.330Z,7.57
2022-08-21T03:43:10.294Z,7.75
2022-08-21T03:45:38.225Z,7.85
2022-08-21T03:48:06.199Z,7.38
2022-08-21T03:50:40.717Z,7.07
2022-08-21T03:53:08.697Z,6.65
2022-08-21T03:55:44.465Z,6.90
2022-08-21T03:58:16.862Z,7.00
2022-08-21T04:00:44.608Z,6.97
2022-08-21T04:03:11.672Z,6.38
2022-08-21T04:05:38.764Z,6.43
2022-08-21T04:08:06.861Z,6.38
2022-08-21T04:10:36.393Z,6.05
2022-08-21T04:13:03.629Z,6.57
2022-08-21T04:15:30.762Z,6.53
2022-08-21T04:17:57.833Z,5.90
2022-08-21T04:20:25.926Z,6.20
2022-08-21T04:22:53.189Z,6.07
2022-08-21T04:25:21.513Z,6.50
2022-08-21T04:27:49.030Z,6.35
2022-08-21T04:30:16.627Z,6.63
2022-08-21T04:32:45.212Z,6.43
2022-08-21T04:35:12.731Z,6.85
2022-08-21T04:37:42.174Z,6.78
2022-08-21T04:40:11.784Z,6.10
2022-08-21T04:42:50.514Z,6.10
2022-08-21T04:45:31.777Z,5.85
2022-08-21T04:48:00.088Z,5.97
2022-08-21T04:50:30.093Z,5.80
2022-08-21T04:52:57.876Z,6.35
2022-08-21T04:55:26.477Z,6.15
2022-08-21T04:57:54.454Z,6.10
2022-08-21T05:00:21.977Z,6.50
2022-08-21T05:02:49.630Z,6.13
2022-08-21T05:05:17.519Z,6.25
2022-08-21T05:07:46.137Z,5.80
2022-08-21T05:10:13.993Z,6.05
2022-08-21T05:12:42.724Z,5.85
2022-08-21T05:15:12.851Z,5.82
2022-08-21T05:17:40.706Z,5.82
2022-08-21T05:20:08.099Z,5.70
2022-08-21T05:22:35.224Z,5.15
2022-08-21T05:25:02.297Z,5.80
2022-08-21T05:27:30.631Z,5.30
2022-08-21T05:29:59.033Z,4.90
2022-08-21T05:32:28.627Z,4.60
2022-08-21T05:34:56.038Z,4.93
2022-08-21T05:37:23.104Z,5.00
2022-08-21T05:40:05.186Z,4.72
2022-08-21T05:42:37.524Z,4.68
2022-08-21T05:45:04.845Z,4.70
2022-08-21T05:47:31.942Z,5.25
2022-08-21T05:49:58.999Z,4.90
2022-08-21T05:52:26.114Z,4.72
2022-08-21T05:54:54.831Z,4.78
2022-08-21T05:57:22.894Z,4.80
2022-08-21T05:59:50.316Z,4.10
2022-08-21T06:02:19.078Z,4.28
2022-08-21T06:04:46.281Z,4.43
2022-08-21T06:07:13.670Z,4.05
2022-08-21T06:09:40.837Z,4.70
2022-08-21T06:12:09.388Z,4.30
2022-08-21T06:14:37.092Z,4.85
2022-08-21T06:17:07.901Z,4.40
2022-08-21T06:19:35.462Z,4.43
2022-08-21T06:22:02.769Z,4.15
2022-08-21T06:24:29.895Z,3.80
2022-08-21T06:26:57.725Z,4.63
2022-08-21T06:29:25.516Z,3.92
2022-08-21T06:31:52.804Z,3.90
2022-08-21T06:34:20.113Z,3.95
2022-08-21T06:36:47.225Z,4.53
2022-08-21T06:39:24.881Z,3.88
2022-08-21T06:41:57.642Z,4.32
2022-08-21T06:44:24.825Z,4.13
2022-08-21T06:46:51.932Z,3.85
2022-08-21T06:49:21.372Z,3.22
2022-08-21T06:51:48.966Z,3.53
2022-08-21T06:54:16.020Z,3.83
2022-08-21T06:56:43.127Z,3.10
2022-08-21T06:59:10.328Z,3.08
2022-08-21T07:01:37.561Z,2.90
2022-08-21T07:04:04.886Z,2.78
2022-08-21T07:06:34.093Z,3.28
2022-08-21T07:09:03.218Z,2.63
2022-08-21T07:11:33.210Z,3.15
2022-08-21T07:14:09.561Z,2.75
2022-08-21T07:16:47.042Z,3.00
2022-08-21T07:19:14.128Z,2.90
2022-08-21T07:21:41.244Z,2.53
2022-08-21T07:24:08.358Z,2.70
2022-08-21T07:26:35.428Z,2.47
2022-08-21T07:29:05.042Z,2.30
2022-08-21T07:31:32.581Z,2.22
2022-08-21T07:33:59.715Z,2.17
2022-08-21T07:36:26.901Z,2.30
2022-08-21T07:38:54.877Z,1.85
2022-08-21T07:41:23.534Z,2.30
2022-08-21T07:43:52.733Z,2.05
2022-08-21T07:46:20.547Z,2.20
2022-08-21T07:48:47.669Z,2.40
2022-08-21T07:51:16.340Z,2.50
2022-08-21T07:53:43.515Z,2.03
2022-08-21T07:56:12.013Z,2.17
2022-08-21T07:58:39.141Z,1.85
2022-08-21T08:01:07.352Z,2.33
2022-08-21T08:03:34.880Z,2.20
2022-08-21T08:06:05.149Z,2.15
2022-08-21T08:08:32.661Z,1.80
2022-08-21T08:11:00.829Z,2.13
2022-08-21T08:13:27.977Z,2.15
2022-08-21T08:15:55.033Z,2.00
2022-08-21T08:18:22.129Z,2.08
2022-08-21T08:20:49.211Z,1.95
2022-08-21T08:23:19.660Z,2.10
2022-08-21T08:25:47.445Z,2.15
2022-08-21T08:28:16.621Z,2.05
2022-08-21T08:30:45.503Z,2.08
2022-08-21T08:33:12.576Z,2.22
2022-08-21T08:35:41.095Z,1.88
2022-08-21T08:38:08.140Z,2.38
2022-08-21T08:40:53.807Z,2.10
2022-08-21T08:43:21.072Z,2.40
2022-08-21T08:45:50.602Z,2.00
2022-08-21T08:48:31.884Z,2.35
2022-08-21T08:51:01.231Z,2.13
2022-08-21T08:53:31.800Z,2.13
2022-08-21T08:55:59.157Z,1.88
2022-08-21T08:58:28.326Z,1.90
2022-08-21T09:00:56.294Z,1.83
2022-08-21T09:03:24.841Z,2.47
2022-08-21T09:06:02.254Z,2.00
2022-08-21T09:08:43.310Z,2.00
2022-08-21T09:11:19.519Z,2.22
2022-08-21T09:13:49.645Z,1.63
2022-08-21T09:16:35.296Z,1.70
2022-08-21T09:19:24.995Z,1.90
2022-08-21T09:22:00.737Z,1.52
2022-08-21T09:24:38.684Z,1.50
2022-08-21T09:27:09.269Z,1.33
2022-08-21T09:29:38.421Z,1.40
2022-08-21T09:32:18.642Z,1.38
2022-08-21T09:34:56.604Z,1.30
2022-08-21T09:37:23.770Z,1.60
2022-08-21T09:39:50.847Z,1.25
2022-08-21T09:42:26.976Z,1.35
2022-08-21T09:45:07.805Z,1.20
2022-08-21T09:47:34.858Z,1.40
2022-08-21T09:50:12.582Z,1.42
2022-08-21T09:52:45.052Z,1.38
2022-08-21T09:55:37.411Z,1.55
2022-08-21T09:58:04.498Z,1.27
2022-08-21T10:00:33.824Z,1.55
2022-08-21T10:03:13.360Z,1.40
2022-08-21T10:05:41.370Z,1.50
2022-08-21T10:08:18.342Z,1.42
2022-08-21T10:10:45.557Z,1.15
2022-08-21T10:13:21.057Z,1.25
2022-08-21T10:15:54.823Z,1.40
2022-08-21T10:18:26.949Z,1.13
2022-08-21T10:20:56.754Z,1.30
2022-08-21T10:23:44.048Z,1.60
2022-08-21T10:26:26.521Z,1.60
2022-08-21T10:28:56.363Z,1.50
2022-08-21T10:31:42.045Z,1.67
2022-08-21T10:34:28.155Z,1.23
2022-08-21T10:37:14.134Z,1.60
2022-08-21T10:39:44.279Z,1.60
2022-08-21T10:42:30.350Z,1.88
2022-08-21T10:44:57.435Z,1.55
2022-08-21T10:47:35.043Z,1.40
2022-08-21T10:50:20.952Z,2.08
2022-08-21T10:53:06.296Z,1.80
2022-08-21T10:55:48.344Z,1.30
2022-08-21T10:58:30.137Z,1.40
2022-08-21T11:01:00.628Z,1.65
2022-08-21T11:03:36.251Z,1.75
2022-08-21T11:06:10.614Z,1.42
2022-08-21T11:08:43.546Z,1.60
2022-08-21T11:11:10.856Z,1.50
2022-08-21T11:13:42.002Z,1.45
2022-08-21T11:16:28.044Z,1.88
2022-08-21T11:18:58.882Z,1.20
2022-08-21T11:21:33.741Z,1.95
2022-08-21T11:24:19.680Z,1.92
2022-08-21T11:26:53.192Z,1.67
2022-08-21T11:29:29.114Z,1.35
2022-08-21T11:31:59.181Z,1.80
2022-08-21T11:34:39.634Z,1.50
2022-08-21T11:37:06.666Z,1.65
2022-08-21T11:39:33.739Z,1.85
2022-08-21T11:42:10.617Z,1.50
2022-08-21T11:44:40.513Z,1.60
2022-08-21T11:47:12.578Z,1.42
2022-08-21T11:49:45.634Z,1.50
2022-08-21T11:52:15.763Z,1.20
2022-08-21T11:54:48.038Z,1.88
2022-08-21T11:57:21.249Z,1.27
2022-08-21T11:59:51.005Z,1.35
2022-08-21T12:02:21.417Z,1.25
2022-08-21T12:04:54.216Z,1.45
2022-08-21T12:07:43.166Z,1.55
2022-08-21T12:10:13.918Z,1.40
2022-08-21T12:12:42.108Z,1.30
2022-08-21T12:15:21.389Z,1.70
2022-08-21T12:17:54.235Z,1.63
2022-08-21T12:20:34.181Z,1.70
2022-08-21T12:23:06.532Z,1.67
2022-08-21T12:25:41.917Z,1.40
2022-08-21T12:28:11.146Z,1.42
2022-08-21T12:30:39.903Z,1.70
2022-08-21T12:33:20.350Z,1.90
2022-08-21T12:35:50.175Z,1.35
2022-08-21T12:38:21.765Z,1.50
2022-08-21T12:41:03.036Z,1.50
2022-08-21T12:43:32.762Z,1.35
2022-08-21T12:46:01.608Z,1.55
2022-08-21T12:48:32.951Z,1.50
2022-08-21T12:51:08.866Z,1.60
2022-08-21T12:53:48.342Z,1.50
2022-08-21T12:56:20.589Z,1.20
2022-08-21T12:58:52.068Z,1.20
2022-08-21T13:01:25.559Z,1.38
2022-08-21T13:03:58.153Z,1.83
2022-08-21T13:06:39.223Z,1.45
2022-08-21T13:09:08.208Z,1.40
2022-08-21T13:11:35.784Z,1.50
2022-08-21T13:14:04.803Z,1.58
2022-08-21T13:16:32.414Z,1.40
2022-08-21T13:19:04.431Z,1.40
2022-08-21T13:21:33.330Z,1.63
2022-08-21T13:27:16.650Z,1.40
2022-08-21T13:29:43.718Z,1.35
2022-08-21T13:32:22.057Z,1.40
2022-08-21T13:34:49.246Z,1.17
2022-08-21T13:37:21.591Z,1.70
2022-08-21T13:39:54.444Z,1.75
2022-08-21T13:42:21.824Z,1.55
2022-08-21T13:44:49.426Z,1.38
2022-08-21T13:47:19.165Z,1.58
2022-08-21T13:49:48.520Z,1.38
2022-08-21T13:52:21.290Z,1.70
2022-08-21T13:54:59.319Z,1.42
2022-08-21T13:57:28.384Z,1.50
2022-08-21T14:00:10.881Z,1.65
2022-08-21T14:02:40.588Z,1.45
2022-08-21T14:05:07.916Z,1.13
2022-08-21T14:07:37.597Z,1.50
2022-08-21T14:10:05.925Z,1.48
2022-08-21T14:12:45.387Z,1.60
2022-08-21T14:15:14.630Z,1.50
2022-08-21T14:17:42.556Z,1.13
2022-08-21T14:20:12.339Z,1.38
2022-08-21T14:22:44.466Z,1.80
2022-08-21T14:25:17.046Z,1.50
2022-08-21T14:27:52.150Z,1.73
2022-08-21T14:30:28.468Z,1.60
2022-08-21T14:32:56.244Z,1.75
2022-08-21T14:35:24.611Z,1.75
2022-08-21T14:37:52.097Z,1.10
2022-08-21T14:40:19.498Z,1.50
2022-08-21T14:42:47.110Z,1.50
2022-08-21T14:45:41.603Z,1.60
2022-08-21T14:48:11.904Z,1.77
2022-08-21T14:50:39.713Z,1.52
2022-08-21T14:53:11.050Z,1.70
2022-08-21T14:55:57.591Z,1.77
2022-08-21T14:58:25.351Z,1.50
2022-08-21T15:00:53.503Z,1.60
2022-08-21T15:03:22.800Z,1.30
2022-08-21T15:05:50.786Z,1.33
2022-08-21T15:08:18.115Z,1.25
2022-08-21T15:11:10.034Z,1.70
2022-08-21T15:13:32.926Z,1.20
2022-08-21T15:16:00.095Z,1.50
2022-08-21T15:18:28.564Z,1.50
2022-08-21T15:20:55.709Z,1.40
2022-08-21T15:23:23.179Z,1.42
2022-08-21T15:25:51.091Z,1.30
2022-08-21T15:28:18.870Z,1.45
2022-08-21T15:30:46.618Z,1.35
2022-08-21T15:33:13.774Z,1.33
2022-08-21T15:35:41.140Z,1.80
2022-08-21T15:38:11.208Z,1.50
2022-08-21T15:40:39.344Z,1.42
2022-08-21T15:43:30.029Z,1.52
2022-08-21T15:45:58.032Z,1.60
2022-08-21T15:48:25.102Z,1.80
2022-08-21T15:50:52.327Z,1.67
2022-08-21T15:53:19.462Z,1.20
2022-08-21T15:55:46.567Z,1.65
2022-08-21T15:58:17.279Z,1.55
2022-08-21T16:00:45.422Z,1.30
2022-08-21T16:03:15.918Z,1.80
2022-08-21T16:05:43.513Z,1.70
2022-08-21T16:08:11.677Z,1.25
2022-08-21T16:10:39.231Z,1.30
2022-08-21T16:13:07.901Z,1.60
2022-08-21T16:15:35.010Z,1.70
2022-08-21T16:18:02.212Z,1.30
2022-08-21T16:20:30.009Z,1.52
2022-08-21T16:22:58.729Z,1.90
2022-08-21T16:25:26.103Z,1.80
2022-08-21T16:27:59.474Z,2.15
2022-08-21T16:30:27.148Z,1.98
2022-08-21T16:32:54.532Z,2.00
2022-08-21T16:35:22.402Z,1.77
2022-08-21T16:37:52.944Z,1.70
2022-08-21T16:40:20.700Z,2.40
2022-08-21T16:42:47.822Z,1.90
2022-08-21T16:45:17.118Z,2.60
2022-08-21T16:47:44.758Z,2.28
2022-08-21T16:50:14.349Z,2.33
2022-08-21T16:52:41.412Z,2.20
2022-08-21T16:55:09.316Z,2.00
2022-08-21T16:57:37.063Z,2.30
2022-08-21T17:00:08.870Z,2.17
2022-08-21T17:02:41.041Z,2.42
2022-08-21T17:05:13.614Z,2.22
2022-08-21T17:07:41.759Z,2.50
2022-08-21T17:10:09.129Z,2.40
2022-08-21T17:12:36.524Z,2.47
2022-08-21T17:15:08.391Z,3.05
2022-08-21T17:17:35.569Z,2.67
2022-08-21T17:20:02.761Z,3.30
2022-08-21T17:22:29.852Z,2.78
2022-08-21T17:24:59.262Z,2.60
2022-08-21T17:27:28.101Z,3.00
2022-08-21T17:29:56.046Z,3.20
2022-08-21T17:32:23.667Z,3.13
2022-08-21T17:34:50.969Z,3.08
2022-08-21T17:37:18.167Z,3.53
2022-08-21T17:39:45.328Z,3.13
2022-08-21T17:42:13.673Z,3.30
2022-08-21T17:44:45.364Z,3.38
2022-08-21T17:47:12.793Z,2.97
2022-08-21T17:49:39.930Z,3.05
2022-08-21T17:52:07.652Z,3.05
2022-08-21T17:54:35.838Z,2.83
2022-08-21T17:57:03.901Z,2.90
2022-08-21T17:59:31.294Z,2.97
2022-08-21T18:02:01.378Z,2.70
2022-08-21T18:04:32.113Z,2.70
2022-08-21T18:06:59.205Z,3.45
2022-08-21T18:09:29.612Z,3.53
2022-08-21T18:11:57.713Z,4.05
2022-08-21T18:14:35.037Z,3.10
2022-08-21T18:17:02.401Z,3.08
2022-08-21T18:19:29.478Z,2.90
2022-08-21T18:22:01.513Z,3.00
2022-08-21T18:24:31.045Z,2.85
2022-08-21T18:26:58.223Z,3.60
2022-08-21T18:29:25.303Z,3.00
2022-08-21T18:31:52.673Z,3.05
2022-08-21T18:34:27.951Z,3.25
2022-08-21T18:36:55.259Z,2.90
2022-08-21T18:39:36.421Z,3.28
2022-08-21T18:42:05.325Z,3.60
2022-08-21T18:44:32.828Z,3.33
2022-08-21T18:47:01.841Z,3.40
2022-08-21T18:49:29.056Z,3.42
2022-08-21T18:51:56.465Z,3.42
2022-08-21T18:54:24.712Z,3.92
2022-08-21T18:56:54.977Z,3.63
2022-08-21T18:59:22.519Z,4.13
2022-08-21T19:01:50.286Z,4.55
2022-08-21T19:07:04.652Z,3.92
2022-08-21T19:09:31.798Z,3.90
2022-08-21T19:11:59.063Z,4.22
2022-08-21T19:14:26.676Z,4.15
2022-08-21T19:16:53.834Z,4.03
2022-08-21T19:19:21.075Z,3.78
2022-08-21T19:21:49.397Z,4.82
2022-08-21T19:24:17.408Z,5.80
2022-08-21T19:26:45.343Z,4.80
2022-08-21T19:29:12.890Z,4.38
2022-08-21T19:31:41.960Z,3.97
2022-08-21T19:34:15.780Z,3.85
2022-08-21T19:36:43.096Z,3.90
2022-08-21T19:39:11.014Z,4.13
2022-08-21T19:41:41.797Z,3.85
2022-08-21T19:44:10.985Z,4.00
2022-08-21T19:46:40.496Z,3.78
2022-08-21T19:49:10.574Z,3.60
2022-08-21T19:51:37.650Z,4.20
2022-08-21T19:54:05.751Z,3.80
2022-08-21T19:56:38.586Z,3.92
2022-08-21T19:59:09.504Z,3.17
2022-08-21T20:01:36.599Z,5.03
2022-08-21T20:04:08.910Z,3.30
2022-08-21T20:06:45.418Z,3.03
2022-08-21T20:09:12.566Z,3.30
2022-08-21T20:11:42.144Z,3.45
2022-08-21T20:14:10.823Z,3.70
2022-08-21T20:16:38.230Z,3.67
2022-08-21T20:19:08.797Z,3.28
2022-08-21T20:21:43.592Z,3.53
2022-08-21T20:24:12.054Z,2.75
2022-08-21T20:26:42.764Z,3.28
2022-08-21T20:29:16.711Z,3.25
2022-08-21T20:31:51.097Z,2.75
2022-08-21T20:34:18.202Z,2.83
2022-08-21T20:36:45.309Z,3.05
2022-08-21T20:39:15.185Z,3.67
2022-08-21T20:41:44.570Z,3.17
2022-08-21T20:44:15.260Z,3.13
2022-08-21T20:46:42.497Z,3.22
2022-08-21T20:49:11.509Z,2.72
2022-08-21T20:51:48.233Z,2.70
2022-08-21T20:54:15.262Z,2.90
2022-08-21T20:57:01.332Z,2.83
2022-08-21T20:59:34.723Z,2.75
2022-08-21T21:02:22.087Z,3.25
2022-08-21T21:04:55.442Z,3.65
2022-08-21T21:07:25.692Z,3.13
2022-08-21T21:09:55.226Z,2.60
2022-08-21T21:12:28.183Z,2.90
2022-08-21T21:14:58.697Z,2.90
2022-08-21T21:17:38.286Z,2.80
2022-08-21T21:20:17.909Z,2.58
2022-08-21T21:22:54.559Z,2.75
2022-08-21T21:25:25.121Z,2.80
2022-08-21T21:28:04.313Z,2.75
2022-08-21T21:30:33.115Z,2.88
2022-08-21T21:33:00.604Z,3.53
2022-08-21T21:38:35.395Z,3.10
2022-08-21T21:41:13.324Z,3.25
2022-08-21T21:43:46.177Z,2.90
2022-08-21T21:46:13.640Z,2.70
2022-08-21T21:49:00.501Z,3.10
2022-08-21T21:51:39.009Z,3.35
2022-08-21T21:54:09.088Z,2.90
2022-08-21T21:56:48.258Z,3.30
2022-08-21T21:59:26.133Z,3.10
2022-08-21T22:01:59.821Z,2.80
2022-08-21T22:07:40.678Z,3.47
2022-08-21T22:10:19.795Z,2.97
2022-08-21T22:13:01.000Z,3.28
2022-08-21T22:15:36.916Z,2.95
2022-08-21T22:18:11.392Z,2.80
2022-08-21T22:20:50.150Z,2.85
2022-08-21T22:23:20.638Z,3.08
2022-08-21T22:25:51.286Z,2.85
2022-08-21T22:28:25.607Z,2.95
2022-08-21T22:30:57.817Z,2.97
2022-08-21T22:33:29.306Z,2.65
2022-08-21T22:35:58.690Z,3.10
2022-08-21T22:38:30.711Z,2.90
2022-08-21T22:41:12.736Z,2.55
2022-08-21T22:43:51.380Z,3.05
2022-08-21T22:46:24.481Z,2.85
2022-08-21T22:49:08.071Z,2.58
2022-08-21T22:51:40.220Z,2.58
2022-08-21T22:54:09.650Z,3.30
2022-08-21T22:56:57.715Z,3.05
2022-08-21T22:59:34.890Z,3.03
2022-08-21T23:02:02.038Z,3.10
2022-08-21T23:04:29.209Z,3.30
2022-08-21T23:07:00.596Z,3.10
2022-08-21T23:09:28.131Z,2.88
2022-08-21T23:11:56.599Z,3.40
2022-08-21T23:14:24.449Z,2.90
2022-08-21T23:16:57.484Z,3.03
2022-08-21T23:22:33.243Z,2.95
2022-08-21T23:25:00.261Z,3.20
2022-08-21T23:27:47.965Z,2.63
2022-08-21T23:30:15.248Z,2.92
2022-08-21T23:32:52.529Z,2.97
2022-08-21T23:36:04.214Z,3.10
2022-08-21T23:38:34.027Z,2.90
2022-08-21T23:41:10.980Z,2.80
2022-08-21T23:44:04.449Z,2.97
2022-08-21T23:46:54.666Z,3.00
2022-08-21T23:49:33.731Z,3.08
2022-08-21T23:52:20.042Z,3.00
2022-08-21T23:54:55.010Z,3.25
2022-08-21T23:57:31.617Z,3.30
